sensor_id;sensor_type;location;lat;lon;timestamp;P1;P2;P0
68713;PMS7003;55690;51.566;19.198;2023-04-06T00:03:49;27;23;15
68713;PMS7003;55690;51.566;19.198;2023-04-06T00:07:55;22;15;10
68713;PMS7003;55690;51.566;19.198;2023-04-06T00:12:01;23;16;11
68713;PMS7003;55690;51.566;19.198;2023-04-06T00:16:07;31;14;10
68713;PMS7003;55690;51.566;19.198;2023-04-06T00:20:14;16;14;11
68713;PMS7003;55690;51.566;19.198;2023-04-06T00:24:20;12;9;7
68713;PMS7003;55690;51.566;19.198;2023-04-06T00:28:26;10;9;6
68713;PMS7003;55690;51.566;19.198;2023-04-06T00:32:32;14;13;9
68713;PMS7003;55690;51.566;19.198;2023-04-06T00:36:38;16;10;8
68713;PMS7003;55690;51.566;19.198;2023-04-06T00:40:44;13;10;7
68713;PMS7003;55690;51.566;19.198;2023-04-06T00:44:54;13;12;7
68713;PMS7003;55690;51.566;19.198;2023-04-06T00:48:57;18;11;8
68713;PMS7003;55690;51.566;19.198;2023-04-06T00:53:03;11;10;6
68713;PMS7003;55690;51.566;19.198;2023-04-06T00:57:10;17;14;8
68713;PMS7003;55690;51.566;19.198;2023-04-06T01:01:15;16;16;13
68713;PMS7003;55690;51.566;19.198;2023-04-06T01:05:22;11;5;5
68713;PMS7003;55690;51.566;19.198;2023-04-06T01:09:28;13;11;7
68713;PMS7003;55690;51.566;19.198;2023-04-06T01:13:34;12;10;9
68713;PMS7003;55690;51.566;19.198;2023-04-06T01:17:40;24;13;9
68713;PMS7003;55690;51.566;19.198;2023-04-06T01:21:47;11;8;6
68713;PMS7003;55690;51.566;19.198;2023-04-06T01:25:53;17;12;9
68713;PMS7003;55690;51.566;19.198;2023-04-06T01:29:59;15;14;11
68713;PMS7003;55690;51.566;19.198;2023-04-06T01:34:05;12;9;7
68713;PMS7003;55690;51.566;19.198;2023-04-06T01:38:11;17;13;11
68713;PMS7003;55690;51.566;19.198;2023-04-06T01:42:17;24;21;10
68713;PMS7003;55690;51.566;19.198;2023-04-06T01:46:24;20;9;7
68713;PMS7003;55690;51.566;19.198;2023-04-06T01:50:30;20;13;11
68713;PMS7003;55690;51.566;19.198;2023-04-06T01:54:36;16;14;10
68713;PMS7003;55690;51.566;19.198;2023-04-06T01:58:42;21;18;14
68713;PMS7003;55690;51.566;19.198;2023-04-06T02:02:48;24;14;10
68713;PMS7003;55690;51.566;19.198;2023-04-06T02:06:55;17;16;9
68713;PMS7003;55690;51.566;19.198;2023-04-06T02:11:01;20;15;10
68713;PMS7003;55690;51.566;19.198;2023-04-06T02:15:07;27;15;11
68713;PMS7003;55690;51.566;19.198;2023-04-06T02:19:13;14;13;10
68713;PMS7003;55690;51.566;19.198;2023-04-06T02:23:20;27;22;15
68713;PMS7003;55690;51.566;19.198;2023-04-06T02:27:26;21;16;9
68713;PMS7003;55690;51.566;19.198;2023-04-06T02:31:32;21;14;9
68713;PMS7003;55690;51.566;19.198;2023-04-06T02:35:39;31;20;13
68713;PMS7003;55690;51.566;19.198;2023-04-06T02:39:45;19;12;7
68713;PMS7003;55690;51.566;19.198;2023-04-06T02:43:51;26;18;14
68713;PMS7003;55690;51.566;19.198;2023-04-06T02:47:57;25;22;13
68713;PMS7003;55690;51.566;19.198;2023-04-06T02:52:03;18;18;12
68713;PMS7003;55690;51.566;19.198;2023-04-06T02:56:09;20;12;10
68713;PMS7003;55690;51.566;19.198;2023-04-06T03:00:16;16;13;10
68713;PMS7003;55690;51.566;19.198;2023-04-06T03:04:22;26;13;10
68713;PMS7003;55690;51.566;19.198;2023-04-06T03:08:28;15;13;9
68713;PMS7003;55690;51.566;19.198;2023-04-06T03:12:34;19;19;12
68713;PMS7003;55690;51.566;19.198;2023-04-06T03:16:40;23;20;13
68713;PMS7003;55690;51.566;19.198;2023-04-06T03:20:47;26;15;10
68713;PMS7003;55690;51.566;19.198;2023-04-06T03:24:53;28;15;11
68713;PMS7003;55690;51.566;19.198;2023-04-06T03:28:59;23;16;13
68713;PMS7003;55690;51.566;19.198;2023-04-06T03:33:05;23;18;10
68713;PMS7003;55690;51.566;19.198;2023-04-06T03:37:11;18;13;11
68713;PMS7003;55690;51.566;19.198;2023-04-06T03:41:18;22;11;9
68713;PMS7003;55690;51.566;19.198;2023-04-06T03:45:24;24;13;8
68713;PMS7003;55690;51.566;19.198;2023-04-06T03:49:30;27;16;11
68713;PMS7003;55690;51.566;19.198;2023-04-06T03:53:36;25;12;8
68713;PMS7003;55690;51.566;19.198;2023-04-06T03:57:43;25;21;15
68713;PMS7003;55690;51.566;19.198;2023-04-06T04:01:49;43;25;15
68713;PMS7003;55690;51.566;19.198;2023-04-06T04:05:55;22;22;15
68713;PMS7003;55690;51.566;19.198;2023-04-06T04:10:01;34;21;15
68713;PMS7003;55690;51.566;19.198;2023-04-06T04:14:07;16;15;11
68713;PMS7003;55690;51.566;19.198;2023-04-06T04:18:14;29;25;14
68713;PMS7003;55690;51.566;19.198;2023-04-06T04:22:20;25;20;13
68713;PMS7003;55690;51.566;19.198;2023-04-06T04:26:27;27;20;12
68713;PMS7003;55690;51.566;19.198;2023-04-06T04:30:33;45;24;17
68713;PMS7003;55690;51.566;19.198;2023-04-06T04:34:39;21;19;10
68713;PMS7003;55690;51.566;19.198;2023-04-06T04:38:45;29;24;18
68713;PMS7003;55690;51.566;19.198;2023-04-06T04:42:51;31;25;15
68713;PMS7003;55690;51.566;19.198;2023-04-06T04:46:58;40;29;18
68713;PMS7003;55690;51.566;19.198;2023-04-06T04:51:04;21;20;14
68713;PMS7003;55690;51.566;19.198;2023-04-06T04:55:10;27;14;9
68713;PMS7003;55690;51.566;19.198;2023-04-06T04:59:16;29;20;14
68713;PMS7003;55690;51.566;19.198;2023-04-06T05:03:23;44;26;16
68713;PMS7003;55690;51.566;19.198;2023-04-06T05:07:29;25;18;12
68713;PMS7003;55690;51.566;19.198;2023-04-06T05:11:35;36;27;16
68713;PMS7003;55690;51.566;19.198;2023-04-06T05:15:41;35;24;12
68713;PMS7003;55690;51.566;19.198;2023-04-06T05:19:47;23;18;14
68713;PMS7003;55690;51.566;19.198;2023-04-06T05:23:53;27;21;15
68713;PMS7003;55690;51.566;19.198;2023-04-06T05:28:00;40;24;19
68713;PMS7003;55690;51.566;19.198;2023-04-06T05:32:06;26;16;10
68713;PMS7003;55690;51.566;19.198;2023-04-06T05:36:12;34;24;15
68713;PMS7003;55690;51.566;19.198;2023-04-06T05:40:18;29;22;13
68713;PMS7003;55690;51.566;19.198;2023-04-06T05:44:24;25;18;12
68713;PMS7003;55690;51.566;19.198;2023-04-06T05:48:31;29;26;15
68713;PMS7003;55690;51.566;19.198;2023-04-06T05:52:37;24;15;11
68713;PMS7003;55690;51.566;19.198;2023-04-06T05:56:43;17;16;11
68713;PMS7003;55690;51.566;19.198;2023-04-06T06:00:49;25;22;13
68713;PMS7003;55690;51.566;19.198;2023-04-06T06:04:56;39;26;15
68713;PMS7003;55690;51.566;19.198;2023-04-06T06:09:02;27;24;16
68713;PMS7003;55690;51.566;19.198;2023-04-06T06:13:08;15;11;6
68713;PMS7003;55690;51.566;19.198;2023-04-06T06:17:14;25;17;13
68713;PMS7003;55690;51.566;19.198;2023-04-06T06:21:20;6;1;0
68713;PMS7003;55690;51.566;19.198;2023-04-06T06:25:26;27;13;11
68713;PMS7003;55690;51.566;19.198;2023-04-06T06:29:33;17;14;12
68713;PMS7003;55690;51.566;19.198;2023-04-06T06:33:39;19;14;8
68713;PMS7003;55690;51.566;19.198;2023-04-06T06:37:45;23;13;9
68713;PMS7003;55690;51.566;19.198;2023-04-06T06:41:51;20;14;10
68713;PMS7003;55690;51.566;19.198;2023-04-06T06:45:57;14;9;8
68713;PMS7003;55690;51.566;19.198;2023-04-06T06:50:04;17;16;12
68713;PMS7003;55690;51.566;19.198;2023-04-06T06:54:10;26;16;12
68713;PMS7003;55690;51.566;19.198;2023-04-06T06:58:19;22;16;12
68713;PMS7003;55690;51.566;19.198;2023-04-06T07:02:22;19;16;12
68713;PMS7003;55690;51.566;19.198;2023-04-06T07:06:28;12;12;6
68713;PMS7003;55690;51.566;19.198;2023-04-06T07:10:34;13;13;11
68713;PMS7003;55690;51.566;19.198;2023-04-06T07:14:41;21;12;9
68713;PMS7003;55690;51.566;19.198;2023-04-06T07:18:47;11;10;8
68713;PMS7003;55690;51.566;19.198;2023-04-06T07:22:53;22;17;11
68713;PMS7003;55690;51.566;19.198;2023-04-06T07:26:59;28;13;9
68713;PMS7003;55690;51.566;19.198;2023-04-06T07:31:05;14;14;9
68713;PMS7003;55690;51.566;19.198;2023-04-06T07:35:12;9;8;5
68713;PMS7003;55690;51.566;19.198;2023-04-06T07:39:18;11;10;7
68713;PMS7003;55690;51.566;19.198;2023-04-06T07:43:24;9;9;8
68713;PMS7003;55690;51.566;19.198;2023-04-06T07:47:30;15;9;7
68713;PMS7003;55690;51.566;19.198;2023-04-06T07:51:37;25;12;9
68713;PMS7003;55690;51.566;19.198;2023-04-06T07:55:42;15;11;7
68713;PMS7003;55690;51.566;19.198;2023-04-06T07:59:49;9;6;3
68713;PMS7003;55690;51.566;19.198;2023-04-06T08:03:55;18;9;7
68713;PMS7003;55690;51.566;19.198;2023-04-06T08:08:01;9;9;6
68713;PMS7003;55690;51.566;19.198;2023-04-06T08:12:07;8;8;4
68713;PMS7003;55690;51.566;19.198;2023-04-06T08:16:13;6;6;4
68713;PMS7003;55690;51.566;19.198;2023-04-06T08:20:20;5;3;1
68713;PMS7003;55690;51.566;19.198;2023-04-06T08:24:26;11;9;6
68713;PMS7003;55690;51.566;19.198;2023-04-06T08:28:32;14;4;3
68713;PMS7003;55690;51.566;19.198;2023-04-06T08:32:38;10;8;6
68713;PMS7003;55690;51.566;19.198;2023-04-06T08:36:44;18;8;5
68713;PMS7003;55690;51.566;19.198;2023-04-06T08:40:50;14;8;6
68713;PMS7003;55690;51.566;19.198;2023-04-06T08:44:57;12;4;2
68713;PMS7003;55690;51.566;19.198;2023-04-06T08:49:03;9;6;5
68713;PMS7003;55690;51.566;19.198;2023-04-06T08:53:10;8;8;5
68713;PMS7003;55690;51.566;19.198;2023-04-06T08:57:16;6;5;4
68713;PMS7003;55690;51.566;19.198;2023-04-06T09:05:31;13;6;4
68713;PMS7003;55690;51.566;19.198;2023-04-06T09:09:34;7;6;4
68713;PMS7003;55690;51.566;19.198;2023-04-06T09:13:44;6;2;1
68713;PMS7003;55690;51.566;19.198;2023-04-06T09:17:47;8;4;4
68713;PMS7003;55690;51.566;19.198;2023-04-06T09:30:13;10;4;3
68713;PMS7003;55690;51.566;19.198;2023-04-06T09:34:21;2;2;2
68713;PMS7003;55690;51.566;19.198;2023-04-06T09:38:26;7;5;5
68713;PMS7003;55690;51.566;19.198;2023-04-06T09:42:27;4;4;3
68713;PMS7003;55690;51.566;19.198;2023-04-06T09:46:33;14;13;10
68713;PMS7003;55690;51.566;19.198;2023-04-06T09:50:36;16;7;6
68713;PMS7003;55690;51.566;19.198;2023-04-06T09:54:42;8;8;5
68713;PMS7003;55690;51.566;19.198;2023-04-06T09:58:48;11;3;3
68713;PMS7003;55690;51.566;19.198;2023-04-06T10:07:08;7;7;6
68713;PMS7003;55690;51.566;19.198;2023-04-06T10:11:17;5;5;4
68713;PMS7003;55690;51.566;19.198;2023-04-06T10:15:19;9;1;0
68713;PMS7003;55690;51.566;19.198;2023-04-06T10:19:26;3;2;2
68713;PMS7003;55690;51.566;19.198;2023-04-06T10:23:37;7;3;3
68713;PMS7003;55690;51.566;19.198;2023-04-06T10:27:44;0;0;0
68713;PMS7003;55690;51.566;19.198;2023-04-06T10:35:37;5;2;2
68713;PMS7003;55690;51.566;19.198;2023-04-06T10:43:59;3;2;2
68713;PMS7003;55690;51.566;19.198;2023-04-06T10:48:12;2;2;1
68713;PMS7003;55690;51.566;19.198;2023-04-06T10:52:15;2;2;2
68713;PMS7003;55690;51.566;19.198;2023-04-06T10:56:17;5;2;2
68713;PMS7003;55690;51.566;19.198;2023-04-06T11:00:23;6;2;2
68713;PMS7003;55690;51.566;19.198;2023-04-06T11:04:25;2;2;2
68713;PMS7003;55690;51.566;19.198;2023-04-06T11:08:30;1;1;1
68713;PMS7003;55690;51.566;19.198;2023-04-06T11:12:33;3;3;3
68713;PMS7003;55690;51.566;19.198;2023-04-06T11:16:38;2;2;2
68713;PMS7003;55690;51.566;19.198;2023-04-06T11:20:47;2;2;1
68713;PMS7003;55690;51.566;19.198;2023-04-06T11:24:50;4;4;4
68713;PMS7003;55690;51.566;19.198;2023-04-06T11:28:57;5;2;1
68713;PMS7003;55690;51.566;19.198;2023-04-06T11:33:02;4;4;3
68713;PMS7003;55690;51.566;19.198;2023-04-06T11:37:09;12;5;4
68713;PMS7003;55690;51.566;19.198;2023-04-06T11:41:15;2;2;2
68713;PMS7003;55690;51.566;19.198;2023-04-06T11:45:21;4;4;3
68713;PMS7003;55690;51.566;19.198;2023-04-06T11:49:27;7;4;3
68713;PMS7003;55690;51.566;19.198;2023-04-06T11:53:33;5;5;3
68713;PMS7003;55690;51.566;19.198;2023-04-06T11:57:48;5;3;3
68713;PMS7003;55690;51.566;19.198;2023-04-06T12:01:52;3;2;2
68713;PMS7003;55690;51.566;19.198;2023-04-06T12:05:54;4;4;2
68713;PMS7003;55690;51.566;19.198;2023-04-06T12:09:58;3;3;2
68713;PMS7003;55690;51.566;19.198;2023-04-06T12:14:04;7;2;2
68713;PMS7003;55690;51.566;19.198;2023-04-06T12:18:10;7;4;4
68713;PMS7003;55690;51.566;19.198;2023-04-06T12:22:17;4;2;2
68713;PMS7003;55690;51.566;19.198;2023-04-06T12:26:23;10;6;3
68713;PMS7003;55690;51.566;19.198;2023-04-06T12:30:29;5;2;2
68713;PMS7003;55690;51.566;19.198;2023-04-06T12:34:35;1;1;1
68713;PMS7003;55690;51.566;19.198;2023-04-06T12:38:41;9;2;2
68713;PMS7003;55690;51.566;19.198;2023-04-06T12:42:47;3;3;3
68713;PMS7003;55690;51.566;19.198;2023-04-06T12:46:53;4;4;3
68713;PMS7003;55690;51.566;19.198;2023-04-06T12:51:00;5;5;4
68713;PMS7003;55690;51.566;19.198;2023-04-06T12:55:06;3;3;2
68713;PMS7003;55690;51.566;19.198;2023-04-06T12:59:12;4;3;3
68713;PMS7003;55690;51.566;19.198;2023-04-06T13:03:18;5;3;2
68713;PMS7003;55690;51.566;19.198;2023-04-06T13:07:25;6;6;4
68713;PMS7003;55690;51.566;19.198;2023-04-06T13:11:30;8;6;4
68713;PMS7003;55690;51.566;19.198;2023-04-06T13:15:37;10;4;4
68713;PMS7003;55690;51.566;19.198;2023-04-06T13:19:43;2;1;1
68713;PMS7003;55690;51.566;19.198;2023-04-06T13:23:50;4;4;3
68713;PMS7003;55690;51.566;19.198;2023-04-06T13:27:55;7;4;4
68713;PMS7003;55690;51.566;19.198;2023-04-06T13:32:02;10;9;7
68713;PMS7003;55690;51.566;19.198;2023-04-06T13:36:08;7;6;5
68713;PMS7003;55690;51.566;19.198;2023-04-06T13:40:14;3;3;2
68713;PMS7003;55690;51.566;19.198;2023-04-06T13:44:20;5;4;3
68713;PMS7003;55690;51.566;19.198;2023-04-06T13:48:26;10;5;4
68713;PMS7003;55690;51.566;19.198;2023-04-06T13:52:32;4;3;2
68713;PMS7003;55690;51.566;19.198;2023-04-06T13:56:38;4;3;3
68713;PMS7003;55690;51.566;19.198;2023-04-06T14:00:45;11;5;4
68713;PMS7003;55690;51.566;19.198;2023-04-06T14:04:51;6;4;3
68713;PMS7003;55690;51.566;19.198;2023-04-06T14:08:57;5;4;3
68713;PMS7003;55690;51.566;19.198;2023-04-06T14:13:03;5;5;5
68713;PMS7003;55690;51.566;19.198;2023-04-06T14:17:09;6;3;2
68713;PMS7003;55690;51.566;19.198;2023-04-06T14:21:16;3;3;2
68713;PMS7003;55690;51.566;19.198;2023-04-06T14:25:22;12;8;6
68713;PMS7003;55690;51.566;19.198;2023-04-06T14:29:28;4;4;4
68713;PMS7003;55690;51.566;19.198;2023-04-06T14:33:34;7;6;5
68713;PMS7003;55690;51.566;19.198;2023-04-06T14:37:40;1;1;0
68713;PMS7003;55690;51.566;19.198;2023-04-06T14:41:46;6;5;4
68713;PMS7003;55690;51.566;19.198;2023-04-06T14:45:53;10;3;3
68713;PMS7003;55690;51.566;19.198;2023-04-06T14:49:59;12;4;3
68713;PMS7003;55690;51.566;19.198;2023-04-06T14:54:05;8;3;2
68713;PMS7003;55690;51.566;19.198;2023-04-06T14:58:11;6;6;3
68713;PMS7003;55690;51.566;19.198;2023-04-06T15:02:17;4;4;3
68713;PMS7003;55690;51.566;19.198;2023-04-06T15:06:24;7;4;3
68713;PMS7003;55690;51.566;19.198;2023-04-06T15:10:32;7;4;3
68713;PMS7003;55690;51.566;19.198;2023-04-06T15:14:36;8;5;3
68713;PMS7003;55690;51.566;19.198;2023-04-06T15:18:42;21;13;8
68713;PMS7003;55690;51.566;19.198;2023-04-06T15:22:48;5;5;3
68713;PMS7003;55690;51.566;19.198;2023-04-06T15:26:55;12;8;7
68713;PMS7003;55690;51.566;19.198;2023-04-06T15:31:01;6;5;4
68713;PMS7003;55690;51.566;19.198;2023-04-06T15:35:08;10;10;6
68713;PMS7003;55690;51.566;19.198;2023-04-06T15:39:13;8;8;7
68713;PMS7003;55690;51.566;19.198;2023-04-06T15:43:19;21;14;9
68713;PMS7003;55690;51.566;19.198;2023-04-06T15:47:26;3;3;2
68713;PMS7003;55690;51.566;19.198;2023-04-06T15:51:32;7;6;5
68713;PMS7003;55690;51.566;19.198;2023-04-06T15:55:38;18;11;6
68713;PMS7003;55690;51.566;19.198;2023-04-06T15:59:44;11;8;6
68713;PMS7003;55690;51.566;19.198;2023-04-06T16:03:50;16;8;7
68713;PMS7003;55690;51.566;19.198;2023-04-06T16:07:56;5;5;3
68713;PMS7003;55690;51.566;19.198;2023-04-06T16:12:03;12;6;4
68713;PMS7003;55690;51.566;19.198;2023-04-06T16:16:09;9;8;5
68713;PMS7003;55690;51.566;19.198;2023-04-06T16:20:15;16;12;7
68713;PMS7003;55690;51.566;19.198;2023-04-06T16:24:21;8;6;5
68713;PMS7003;55690;51.566;19.198;2023-04-06T16:28:27;10;6;5
68713;PMS7003;55690;51.566;19.198;2023-04-06T16:32:34;11;4;4
68713;PMS7003;55690;51.566;19.198;2023-04-06T16:36:41;10;8;6
68713;PMS7003;55690;51.566;19.198;2023-04-06T16:40:46;8;8;6
68713;PMS7003;55690;51.566;19.198;2023-04-06T16:44:52;10;6;5
68713;PMS7003;55690;51.566;19.198;2023-04-06T16:48:59;7;7;6
68713;PMS7003;55690;51.566;19.198;2023-04-06T16:53:04;7;7;6
68713;PMS7003;55690;51.566;19.198;2023-04-06T16:57:11;11;9;6
68713;PMS7003;55690;51.566;19.198;2023-04-06T17:01:18;11;10;6
68713;PMS7003;55690;51.566;19.198;2023-04-06T17:05:25;7;7;6
68713;PMS7003;55690;51.566;19.198;2023-04-06T17:09:29;23;6;4
68713;PMS7003;55690;51.566;19.198;2023-04-06T17:13:35;5;5;4
68713;PMS7003;55690;51.566;19.198;2023-04-06T17:17:42;7;7;6
68713;PMS7003;55690;51.566;19.198;2023-04-06T17:21:48;12;6;5
68713;PMS7003;55690;51.566;19.198;2023-04-06T17:25:54;8;5;4
68713;PMS7003;55690;51.566;19.198;2023-04-06T17:30:00;7;7;6
68713;PMS7003;55690;51.566;19.198;2023-04-06T17:34:06;11;6;5
68713;PMS7003;55690;51.566;19.198;2023-04-06T17:38:13;7;7;6
68713;PMS7003;55690;51.566;19.198;2023-04-06T17:42:19;12;7;6
68713;PMS7003;55690;51.566;19.198;2023-04-06T17:46:25;11;11;7
68713;PMS7003;55690;51.566;19.198;2023-04-06T17:50:31;12;7;6
68713;PMS7003;55690;51.566;19.198;2023-04-06T17:54:37;10;7;6
68713;PMS7003;55690;51.566;19.198;2023-04-06T17:58:43;10;10;7
68713;PMS7003;55690;51.566;19.198;2023-04-06T18:02:50;8;7;5
68713;PMS7003;55690;51.566;19.198;2023-04-06T18:06:56;10;6;5
68713;PMS7003;55690;51.566;19.198;2023-04-06T18:11:02;10;8;5
68713;PMS7003;55690;51.566;19.198;2023-04-06T18:15:08;10;7;5
68713;PMS7003;55690;51.566;19.198;2023-04-06T18:19:14;12;10;9
68713;PMS7003;55690;51.566;19.198;2023-04-06T18:23:21;10;10;8
68713;PMS7003;55690;51.566;19.198;2023-04-06T18:27:27;15;8;6
68713;PMS7003;55690;51.566;19.198;2023-04-06T18:31:33;11;7;6
68713;PMS7003;55690;51.566;19.198;2023-04-06T18:35:39;20;17;11
68713;PMS7003;55690;51.566;19.198;2023-04-06T18:39:46;14;10;6
68713;PMS7003;55690;51.566;19.198;2023-04-06T18:43:51;9;8;6
68713;PMS7003;55690;51.566;19.198;2023-04-06T18:47:58;6;5;4
68713;PMS7003;55690;51.566;19.198;2023-04-06T18:52:04;11;8;5
68713;PMS7003;55690;51.566;19.198;2023-04-06T18:56:14;20;11;9
68713;PMS7003;55690;51.566;19.198;2023-04-06T19:00:18;14;14;10
68713;PMS7003;55690;51.566;19.198;2023-04-06T19:04:22;11;11;9
68713;PMS7003;55690;51.566;19.198;2023-04-06T19:08:29;13;10;5
68713;PMS7003;55690;51.566;19.198;2023-04-06T19:12:35;8;4;3
68713;PMS7003;55690;51.566;19.198;2023-04-06T19:16:41;7;6;4
68713;PMS7003;55690;51.566;19.198;2023-04-06T19:20:51;13;8;5
68713;PMS7003;55690;51.566;19.198;2023-04-06T19:24:54;9;5;4
68713;PMS7003;55690;51.566;19.198;2023-04-06T19:29:00;6;6;4
68713;PMS7003;55690;51.566;19.198;2023-04-06T19:33:06;12;7;5
68713;PMS7003;55690;51.566;19.198;2023-04-06T19:37:12;5;5;4
68713;PMS7003;55690;51.566;19.198;2023-04-06T19:41:18;19;12;9
68713;PMS7003;55690;51.566;19.198;2023-04-06T19:45:24;13;8;6
68713;PMS7003;55690;51.566;19.198;2023-04-06T19:49:30;11;9;6
68713;PMS7003;55690;51.566;19.198;2023-04-06T19:53:37;13;12;6
68713;PMS7003;55690;51.566;19.198;2023-04-06T19:57:43;10;10;8
68713;PMS7003;55690;51.566;19.198;2023-04-06T20:01:49;19;11;10
68713;PMS7003;55690;51.566;19.198;2023-04-06T20:05:55;13;9;7
68713;PMS7003;55690;51.566;19.198;2023-04-06T20:10:02;11;5;4
68713;PMS7003;55690;51.566;19.198;2023-04-06T20:14:08;11;7;6
68713;PMS7003;55690;51.566;19.198;2023-04-06T20:18:14;8;8;6
68713;PMS7003;55690;51.566;19.198;2023-04-06T20:22:20;20;8;5
68713;PMS7003;55690;51.566;19.198;2023-04-06T20:26:26;10;10;7
68713;PMS7003;55690;51.566;19.198;2023-04-06T20:30:32;5;5;4
68713;PMS7003;55690;51.566;19.198;2023-04-06T20:34:39;12;9;7
68713;PMS7003;55690;51.566;19.198;2023-04-06T20:38:45;10;7;6
68713;PMS7003;55690;51.566;19.198;2023-04-06T20:42:52;6;4;3
68713;PMS7003;55690;51.566;19.198;2023-04-06T20:46:58;11;9;8
68713;PMS7003;55690;51.566;19.198;2023-04-06T20:51:03;6;6;4
68713;PMS7003;55690;51.566;19.198;2023-04-06T20:55:09;15;7;3
68713;PMS7003;55690;51.566;19.198;2023-04-06T20:59:16;11;11;8
68713;PMS7003;55690;51.566;19.198;2023-04-06T21:03:22;10;8;5
68713;PMS7003;55690;51.566;19.198;2023-04-06T21:07:28;8;8;5
68713;PMS7003;55690;51.566;19.198;2023-04-06T21:11:34;12;10;7
68713;PMS7003;55690;51.566;19.198;2023-04-06T21:15:40;8;5;4
68713;PMS7003;55690;51.566;19.198;2023-04-06T21:19:46;5;4;4
68713;PMS7003;55690;51.566;19.198;2023-04-06T21:23:53;7;7;5
68713;PMS7003;55690;51.566;19.198;2023-04-06T21:27:59;8;8;6
68713;PMS7003;55690;51.566;19.198;2023-04-06T21:32:05;7;7;5
68713;PMS7003;55690;51.566;19.198;2023-04-06T21:36:11;9;9;6
68713;PMS7003;55690;51.566;19.198;2023-04-06T21:40:17;8;6;5
68713;PMS7003;55690;51.566;19.198;2023-04-06T21:44:24;10;8;7
68713;PMS7003;55690;51.566;19.198;2023-04-06T21:48:30;9;9;7
68713;PMS7003;55690;51.566;19.198;2023-04-06T21:52:36;9;9;7
68713;PMS7003;55690;51.566;19.198;2023-04-06T21:56:42;7;7;6
68713;PMS7003;55690;51.566;19.198;2023-04-06T22:00:48;5;5;4
68713;PMS7003;55690;51.566;19.198;2023-04-06T22:04:55;5;5;4
68713;PMS7003;55690;51.566;19.198;2023-04-06T22:09:01;8;6;4
68713;PMS7003;55690;51.566;19.198;2023-04-06T22:13:07;13;9;8
68713;PMS7003;55690;51.566;19.198;2023-04-06T22:17:13;17;9;7
68713;PMS7003;55690;51.566;19.198;2023-04-06T22:21:19;6;6;5
68713;PMS7003;55690;51.566;19.198;2023-04-06T22:25:25;8;6;4
68713;PMS7003;55690;51.566;19.198;2023-04-06T22:29:32;3;2;2
68713;PMS7003;55690;51.566;19.198;2023-04-06T22:33:38;9;6;4
68713;PMS7003;55690;51.566;19.198;2023-04-06T22:37:44;6;5;4
68713;PMS7003;55690;51.566;19.198;2023-04-06T22:41:50;7;6;5
68713;PMS7003;55690;51.566;19.198;2023-04-06T22:45:56;12;5;4
68713;PMS7003;55690;51.566;19.198;2023-04-06T22:50:03;7;7;6
68713;PMS7003;55690;51.566;19.198;2023-04-06T22:54:09;5;5;4
68713;PMS7003;55690;51.566;19.198;2023-04-06T22:58:15;8;5;3
68713;PMS7003;55690;51.566;19.198;2023-04-06T23:02:21;7;5;4
68713;PMS7003;55690;51.566;19.198;2023-04-06T23:06:27;7;5;2
68713;PMS7003;55690;51.566;19.198;2023-04-06T23:10:33;3;3;3
68713;PMS7003;55690;51.566;19.198;2023-04-06T23:14:41;6;5;4
68713;PMS7003;55690;51.566;19.198;2023-04-06T23:18:46;5;5;4
68713;PMS7003;55690;51.566;19.198;2023-04-06T23:22:52;8;5;4
68713;PMS7003;55690;51.566;19.198;2023-04-06T23:26:58;6;5;3
68713;PMS7003;55690;51.566;19.198;2023-04-06T23:31:05;7;3;1
68713;PMS7003;55690;51.566;19.198;2023-04-06T23:35:11;3;1;1
68713;PMS7003;55690;51.566;19.198;2023-04-06T23:39:17;5;5;4
68713;PMS7003;55690;51.566;19.198;2023-04-06T23:43:23;7;4;3
68713;PMS7003;55690;51.566;19.198;2023-04-06T23:47:29;8;4;2
68713;PMS7003;55690;51.566;19.198;2023-04-06T23:51:35;12;6;5
68713;PMS7003;55690;51.566;19.198;2023-04-06T23:55:41;3;3;3
68713;PMS7003;55690;51.566;19.198;2023-04-06T23:59:48;6;3;2
